Fremont, North Carolina
Current Conditions -  °F | °C
As of 3:40 PM on Friday 28 Nov 2014 (Local Time) from KGWW Reporting Station
Clear Clear  
Wind Chill: 41°   Ceiling: Unl
Heat Index: 44°   Visibility: 10mi
Dew Point: 22°   Wind: 6mph
Humidity: 42%   Direction: 270°W
Pressure: 30.31"   Gusts: NA
Location:  35.55°N, 77.97°W
Report Text: KGWW 282040Z AUTO 27005KT 10SM CLR 07/M05 A3031 RMK AO2 T00681053
Loading
Personal Weather Stations






























Interactive Weather Map New forecast layout! Learn more

10-Day Weather Forecast

Advertisements
Track Severe Weather on mobile